sensor_id;sensor_type;location;lat;lon;timestamp;P1;durP1;ratioP1;P2;durP2;ratioP2
8694;SDS011;65580;49.446;6.854;2022-12-20T00:03:36;47.38;;;22.67;;
8694;SDS011;65580;49.446;6.854;2022-12-20T00:07:40;85.65;;;34.47;;
8694;SDS011;65580;49.446;6.854;2022-12-20T00:11:44;43.65;;;23.08;;
8694;SDS011;65580;49.446;6.854;2022-12-20T00:15:48;49.05;;;22.90;;
8694;SDS011;65580;49.446;6.854;2022-12-20T00:19:53;58.42;;;27.15;;
8694;SDS011;65580;49.446;6.854;2022-12-20T00:23:57;42.17;;;23.75;;
8694;SDS011;65580;49.446;6.854;2022-12-20T00:28:01;56.95;;;26.33;;
8694;SDS011;65580;49.446;6.854;2022-12-20T00:32:05;44.22;;;23.95;;
8694;SDS011;65580;49.446;6.854;2022-12-20T00:36:11;45.42;;;23.05;;
8694;SDS011;65580;49.446;6.854;2022-12-20T00:40:15;51.95;;;24.85;;
8694;SDS011;65580;49.446;6.854;2022-12-20T00:44:19;54.90;;;25.70;;
8694;SDS011;65580;49.446;6.854;2022-12-20T00:48:23;79.57;;;29.95;;
8694;SDS011;65580;49.446;6.854;2022-12-20T00:52:28;66.57;;;29.52;;
8694;SDS011;65580;49.446;6.854;2022-12-20T00:56:32;45.20;;;24.05;;
8694;SDS011;65580;49.446;6.854;2022-12-20T01:00:40;68.82;;;30.63;;
8694;SDS011;65580;49.446;6.854;2022-12-20T01:04:44;104.97;;;41.20;;
8694;SDS011;65580;49.446;6.854;2022-12-20T01:08:49;111.93;;;43.90;;
8694;SDS011;65580;49.446;6.854;2022-12-20T01:12:54;93.93;;;44.33;;
8694;SDS011;65580;49.446;6.854;2022-12-20T01:16:57;92.28;;;39.85;;
8694;SDS011;65580;49.446;6.854;2022-12-20T01:21:02;81.93;;;39.05;;
8694;SDS011;65580;49.446;6.854;2022-12-20T01:25:17;83.05;;;37.08;;
8694;SDS011;65580;49.446;6.854;2022-12-20T01:29:22;73.25;;;36.45;;
8694;SDS011;65580;49.446;6.854;2022-12-20T01:33:26;93.40;;;44.90;;
8694;SDS011;65580;49.446;6.854;2022-12-20T01:37:32;61.80;;;30.20;;
8694;SDS011;65580;49.446;6.854;2022-12-20T01:41:39;76.45;;;35.88;;
8694;SDS011;65580;49.446;6.854;2022-12-20T01:45:43;70.32;;;33.40;;
8694;SDS011;65580;49.446;6.854;2022-12-20T01:49:49;60.15;;;29.83;;
8694;SDS011;65580;49.446;6.854;2022-12-20T01:53:56;57.08;;;29.17;;
8694;SDS011;65580;49.446;6.854;2022-12-20T01:58:04;70.07;;;32.50;;
8694;SDS011;65580;49.446;6.854;2022-12-20T02:02:10;80.55;;;36.65;;
8694;SDS011;65580;49.446;6.854;2022-12-20T02:06:16;71.03;;;36.45;;
8694;SDS011;65580;49.446;6.854;2022-12-20T02:10:22;60.13;;;28.67;;
8694;SDS011;65580;49.446;6.854;2022-12-20T02:14:42;81.72;;;35.70;;
8694;SDS011;65580;49.446;6.854;2022-12-20T02:18:54;68.95;;;34.33;;
8694;SDS011;65580;49.446;6.854;2022-12-20T02:23:07;71.53;;;33.08;;
8694;SDS011;65580;49.446;6.854;2022-12-20T02:31:59;65.68;;;32.20;;
8694;SDS011;65580;49.446;6.854;2022-12-20T02:36:05;50.92;;;25.05;;
8694;SDS011;65580;49.446;6.854;2022-12-20T02:40:09;62.83;;;28.75;;
8694;SDS011;65580;49.446;6.854;2022-12-20T02:44:13;77.05;;;32.53;;
8694;SDS011;65580;49.446;6.854;2022-12-20T02:48:38;53.47;;;26.25;;
8694;SDS011;65580;49.446;6.854;2022-12-20T02:52:45;71.97;;;33.33;;
8694;SDS011;65580;49.446;6.854;2022-12-20T02:56:59;49.67;;;24.67;;
8694;SDS011;65580;49.446;6.854;2022-12-20T03:01:13;78.18;;;34.35;;
8694;SDS011;65580;49.446;6.854;2022-12-20T03:05:22;62.53;;;31.77;;
8694;SDS011;65580;49.446;6.854;2022-12-20T03:09:29;70.68;;;32.72;;
8694;SDS011;65580;49.446;6.854;2022-12-20T03:13:34;85.35;;;33.25;;
8694;SDS011;65580;49.446;6.854;2022-12-20T03:18:03;94.05;;;37.38;;
8694;SDS011;65580;49.446;6.854;2022-12-20T03:22:09;80.95;;;33.80;;
8694;SDS011;65580;49.446;6.854;2022-12-20T03:26:14;78.80;;;32.42;;
8694;SDS011;65580;49.446;6.854;2022-12-20T03:30:21;90.50;;;41.28;;
8694;SDS011;65580;49.446;6.854;2022-12-20T03:34:26;81.30;;;36.10;;
8694;SDS011;65580;49.446;6.854;2022-12-20T03:38:32;91.03;;;39.80;;
8694;SDS011;65580;49.446;6.854;2022-12-20T03:42:37;76.75;;;34.00;;
8694;SDS011;65580;49.446;6.854;2022-12-20T03:46:52;105.50;;;39.95;;
8694;SDS011;65580;49.446;6.854;2022-12-20T03:51:11;83.13;;;34.83;;
8694;SDS011;65580;49.446;6.854;2022-12-20T03:59:27;73.75;;;31.95;;
8694;SDS011;65580;49.446;6.854;2022-12-20T04:03:38;77.28;;;35.53;;
8694;SDS011;65580;49.446;6.854;2022-12-20T04:07:45;68.32;;;30.05;;
8694;SDS011;65580;49.446;6.854;2022-12-20T04:11:50;75.22;;;31.10;;
8694;SDS011;65580;49.446;6.854;2022-12-20T04:16:08;74.28;;;32.42;;
8694;SDS011;65580;49.446;6.854;2022-12-20T04:20:27;60.70;;;27.73;;
8694;SDS011;65580;49.446;6.854;2022-12-20T04:24:31;71.65;;;28.80;;
8694;SDS011;65580;49.446;6.854;2022-12-20T04:28:42;79.80;;;31.80;;
8694;SDS011;65580;49.446;6.854;2022-12-20T04:32:49;96.40;;;36.88;;
8694;SDS011;65580;49.446;6.854;2022-12-20T04:36:59;99.82;;;40.22;;
8694;SDS011;65580;49.446;6.854;2022-12-20T04:41:07;101.97;;;39.90;;
8694;SDS011;65580;49.446;6.854;2022-12-20T04:45:35;91.55;;;38.53;;
8694;SDS011;65580;49.446;6.854;2022-12-20T04:49:39;100.63;;;37.15;;
8694;SDS011;65580;49.446;6.854;2022-12-20T04:53:47;105.47;;;37.13;;
8694;SDS011;65580;49.446;6.854;2022-12-20T04:58:04;112.50;;;35.17;;
8694;SDS011;65580;49.446;6.854;2022-12-20T05:06:21;133.85;;;45.83;;
8694;SDS011;65580;49.446;6.854;2022-12-20T05:10:27;108.78;;;36.33;;
8694;SDS011;65580;49.446;6.854;2022-12-20T05:14:35;122.80;;;38.92;;
8694;SDS011;65580;49.446;6.854;2022-12-20T05:18:45;118.45;;;39.47;;
8694;SDS011;65580;49.446;6.854;2022-12-20T05:22:50;124.18;;;39.03;;
8694;SDS011;65580;49.446;6.854;2022-12-20T05:27:12;146.13;;;45.58;;
8694;SDS011;65580;49.446;6.854;2022-12-20T05:31:42;124.20;;;40.20;;
8694;SDS011;65580;49.446;6.854;2022-12-20T05:35:52;134.88;;;39.28;;
8694;SDS011;65580;49.446;6.854;2022-12-20T05:39:58;147.27;;;43.45;;
8694;SDS011;65580;49.446;6.854;2022-12-20T05:44:06;129.77;;;40.33;;
8694;SDS011;65580;49.446;6.854;2022-12-20T05:48:10;121.32;;;39.53;;
8694;SDS011;65580;49.446;6.854;2022-12-20T05:52:20;158.02;;;46.83;;
8694;SDS011;65580;49.446;6.854;2022-12-20T05:56:24;131.05;;;41.63;;
8694;SDS011;65580;49.446;6.854;2022-12-20T06:00:31;95.75;;;35.22;;
8694;SDS011;65580;49.446;6.854;2022-12-20T06:04:43;107.85;;;40.03;;
8694;SDS011;65580;49.446;6.854;2022-12-20T06:09:05;110.70;;;40.13;;
8694;SDS011;65580;49.446;6.854;2022-12-20T06:13:13;138.82;;;41.72;;
8694;SDS011;65580;49.446;6.854;2022-12-20T06:17:27;166.50;;;49.03;;
8694;SDS011;65580;49.446;6.854;2022-12-20T06:21:34;166.70;;;50.97;;
8694;SDS011;65580;49.446;6.854;2022-12-20T06:26:06;137.25;;;43.42;;
8694;SDS011;65580;49.446;6.854;2022-12-20T06:30:14;122.90;;;40.50;;
8694;SDS011;65580;49.446;6.854;2022-12-20T06:34:21;79.38;;;30.48;;
8694;SDS011;65580;49.446;6.854;2022-12-20T06:38:34;91.38;;;32.78;;
8694;SDS011;65580;49.446;6.854;2022-12-20T06:42:49;96.10;;;33.47;;
8694;SDS011;65580;49.446;6.854;2022-12-20T06:46:54;77.78;;;30.30;;
8694;SDS011;65580;49.446;6.854;2022-12-20T06:50:59;133.45;;;44.75;;
8694;SDS011;65580;49.446;6.854;2022-12-20T06:55:07;139.68;;;48.83;;
8694;SDS011;65580;49.446;6.854;2022-12-20T06:59:13;163.77;;;52.40;;
8694;SDS011;65580;49.446;6.854;2022-12-20T07:03:17;156.30;;;51.63;;
8694;SDS011;65580;49.446;6.854;2022-12-20T07:07:23;186.75;;;62.15;;
8694;SDS011;65580;49.446;6.854;2022-12-20T07:11:29;113.00;;;44.55;;
8694;SDS011;65580;49.446;6.854;2022-12-20T07:15:37;145.38;;;49.88;;
8694;SDS011;65580;49.446;6.854;2022-12-20T07:19:41;228.50;;;72.78;;
8694;SDS011;65580;49.446;6.854;2022-12-20T07:23:55;225.52;;;77.00;;
8694;SDS011;65580;49.446;6.854;2022-12-20T07:28:23;220.55;;;75.32;;
8694;SDS011;65580;49.446;6.854;2022-12-20T07:32:40;250.95;;;82.15;;
8694;SDS011;65580;49.446;6.854;2022-12-20T07:37:00;185.30;;;65.93;;
8694;SDS011;65580;49.446;6.854;2022-12-20T07:41:08;231.68;;;74.85;;
8694;SDS011;65580;49.446;6.854;2022-12-20T07:45:20;205.88;;;67.82;;
8694;SDS011;65580;49.446;6.854;2022-12-20T07:49:27;209.40;;;66.28;;
8694;SDS011;65580;49.446;6.854;2022-12-20T07:53:37;190.93;;;67.30;;
8694;SDS011;65580;49.446;6.854;2022-12-20T07:57:48;195.02;;;65.30;;
8694;SDS011;65580;49.446;6.854;2022-12-20T08:02:03;217.88;;;61.85;;
8694;SDS011;65580;49.446;6.854;2022-12-20T08:06:14;156.57;;;56.92;;
8694;SDS011;65580;49.446;6.854;2022-12-20T08:10:27;167.65;;;57.25;;
8694;SDS011;65580;49.446;6.854;2022-12-20T08:14:33;142.45;;;50.20;;
8694;SDS011;65580;49.446;6.854;2022-12-20T08:23:08;152.43;;;54.47;;
8694;SDS011;65580;49.446;6.854;2022-12-20T08:27:17;127.03;;;46.45;;
8694;SDS011;65580;49.446;6.854;2022-12-20T08:31:25;135.25;;;49.28;;
8694;SDS011;65580;49.446;6.854;2022-12-20T08:35:31;125.15;;;50.30;;
8694;SDS011;65580;49.446;6.854;2022-12-20T08:39:57;104.18;;;43.83;;
8694;SDS011;65580;49.446;6.854;2022-12-20T08:44:06;123.03;;;46.72;;
8694;SDS011;65580;49.446;6.854;2022-12-20T08:48:12;132.93;;;53.78;;
8694;SDS011;65580;49.446;6.854;2022-12-20T08:52:17;132.18;;;51.22;;
8694;SDS011;65580;49.446;6.854;2022-12-20T08:56:35;141.43;;;52.05;;
8694;SDS011;65580;49.446;6.854;2022-12-20T09:00:45;104.53;;;43.83;;
8694;SDS011;65580;49.446;6.854;2022-12-20T09:05:02;131.80;;;49.15;;
8694;SDS011;65580;49.446;6.854;2022-12-20T09:09:07;110.13;;;46.33;;
8694;SDS011;65580;49.446;6.854;2022-12-20T09:13:17;98.25;;;41.60;;
8694;SDS011;65580;49.446;6.854;2022-12-20T09:17:27;99.45;;;41.30;;
8694;SDS011;65580;49.446;6.854;2022-12-20T09:21:33;118.57;;;45.20;;
8694;SDS011;65580;49.446;6.854;2022-12-20T09:25:40;92.72;;;36.42;;
8694;SDS011;65580;49.446;6.854;2022-12-20T09:34:00;109.60;;;40.88;;
8694;SDS011;65580;49.446;6.854;2022-12-20T09:38:04;99.28;;;42.80;;
8694;SDS011;65580;49.446;6.854;2022-12-20T09:42:19;104.40;;;46.53;;
8694;SDS011;65580;49.446;6.854;2022-12-20T09:46:30;108.82;;;45.60;;
8694;SDS011;65580;49.446;6.854;2022-12-20T09:50:46;89.20;;;43.65;;
8694;SDS011;65580;49.446;6.854;2022-12-20T09:55:00;97.50;;;43.72;;
8694;SDS011;65580;49.446;6.854;2022-12-20T09:59:12;73.75;;;36.53;;
8694;SDS011;65580;49.446;6.854;2022-12-20T10:03:28;80.38;;;37.97;;
8694;SDS011;65580;49.446;6.854;2022-12-20T10:07:38;66.97;;;30.45;;
8694;SDS011;65580;49.446;6.854;2022-12-20T10:11:59;60.25;;;31.13;;
8694;SDS011;65580;49.446;6.854;2022-12-20T10:16:15;55.55;;;28.55;;
8694;SDS011;65580;49.446;6.854;2022-12-20T10:20:32;52.15;;;24.60;;
8694;SDS011;65580;49.446;6.854;2022-12-20T10:24:58;47.83;;;25.25;;
8694;SDS011;65580;49.446;6.854;2022-12-20T10:29:18;57.28;;;28.88;;
8694;SDS011;65580;49.446;6.854;2022-12-20T10:33:26;51.95;;;24.50;;
8694;SDS011;65580;49.446;6.854;2022-12-20T10:37:31;46.30;;;22.85;;
8694;SDS011;65580;49.446;6.854;2022-12-20T10:41:45;50.65;;;26.27;;
8694;SDS011;65580;49.446;6.854;2022-12-20T10:45:56;56.90;;;26.23;;
8694;SDS011;65580;49.446;6.854;2022-12-20T10:54:34;59.33;;;25.90;;
8694;SDS011;65580;49.446;6.854;2022-12-20T10:58:44;57.28;;;27.30;;
8694;SDS011;65580;49.446;6.854;2022-12-20T11:03:04;64.45;;;28.95;;
8694;SDS011;65580;49.446;6.854;2022-12-20T11:07:23;59.28;;;25.92;;
8694;SDS011;65580;49.446;6.854;2022-12-20T11:11:29;56.88;;;25.25;;
8694;SDS011;65580;49.446;6.854;2022-12-20T11:15:39;51.33;;;25.63;;
8694;SDS011;65580;49.446;6.854;2022-12-20T11:19:53;49.78;;;23.92;;
8694;SDS011;65580;49.446;6.854;2022-12-20T11:24:07;47.55;;;23.55;;
8694;SDS011;65580;49.446;6.854;2022-12-20T11:28:18;50.22;;;24.88;;
8694;SDS011;65580;49.446;6.854;2022-12-20T11:32:30;48.75;;;24.45;;
8694;SDS011;65580;49.446;6.854;2022-12-20T11:36:54;53.75;;;27.45;;
8694;SDS011;65580;49.446;6.854;2022-12-20T11:41:17;47.20;;;24.63;;
8694;SDS011;65580;49.446;6.854;2022-12-20T11:45:25;54.80;;;25.80;;
8694;SDS011;65580;49.446;6.854;2022-12-20T11:54:13;58.38;;;29.05;;
8694;SDS011;65580;49.446;6.854;2022-12-20T11:58:24;58.15;;;27.33;;
8694;SDS011;65580;49.446;6.854;2022-12-20T12:02:33;54.17;;;29.10;;
8694;SDS011;65580;49.446;6.854;2022-12-20T12:06:41;65.45;;;31.63;;
8694;SDS011;65580;49.446;6.854;2022-12-20T12:11:01;59.33;;;27.92;;
8694;SDS011;65580;49.446;6.854;2022-12-20T12:15:11;49.17;;;25.92;;
8694;SDS011;65580;49.446;6.854;2022-12-20T12:19:28;53.17;;;27.27;;
8694;SDS011;65580;49.446;6.854;2022-12-20T12:23:35;49.40;;;25.40;;
8694;SDS011;65580;49.446;6.854;2022-12-20T12:27:43;51.55;;;26.23;;
8694;SDS011;65580;49.446;6.854;2022-12-20T12:35:56;46.22;;;23.70;;
8694;SDS011;65580;49.446;6.854;2022-12-20T12:40:17;42.75;;;25.05;;
8694;SDS011;65580;49.446;6.854;2022-12-20T12:44:53;44.30;;;23.67;;
8694;SDS011;65580;49.446;6.854;2022-12-20T12:48:59;45.50;;;23.73;;
8694;SDS011;65580;49.446;6.854;2022-12-20T12:53:06;39.92;;;22.67;;
8694;SDS011;65580;49.446;6.854;2022-12-20T12:57:11;41.83;;;23.48;;
8694;SDS011;65580;49.446;6.854;2022-12-20T13:01:45;47.83;;;25.27;;
8694;SDS011;65580;49.446;6.854;2022-12-20T13:05:54;45.90;;;23.60;;
8694;SDS011;65580;49.446;6.854;2022-12-20T13:09:59;51.58;;;22.83;;
8694;SDS011;65580;49.446;6.854;2022-12-20T13:14:23;46.45;;;23.50;;
8694;SDS011;65580;49.446;6.854;2022-12-20T13:18:57;48.17;;;26.17;;
8694;SDS011;65580;49.446;6.854;2022-12-20T13:23:22;40.80;;;23.83;;
8694;SDS011;65580;49.446;6.854;2022-12-20T13:27:33;50.30;;;25.73;;
8694;SDS011;65580;49.446;6.854;2022-12-20T13:31:37;43.70;;;24.40;;
8694;SDS011;65580;49.446;6.854;2022-12-20T13:35:56;47.88;;;26.30;;
8694;SDS011;65580;49.446;6.854;2022-12-20T13:40:04;50.67;;;24.02;;
8694;SDS011;65580;49.446;6.854;2022-12-20T13:44:32;50.17;;;26.83;;
8694;SDS011;65580;49.446;6.854;2022-12-20T13:48:38;50.65;;;26.38;;
8694;SDS011;65580;49.446;6.854;2022-12-20T13:52:49;51.80;;;27.95;;
8694;SDS011;65580;49.446;6.854;2022-12-20T13:56:57;50.42;;;28.75;;
8694;SDS011;65580;49.446;6.854;2022-12-20T14:01:10;43.25;;;23.95;;
8694;SDS011;65580;49.446;6.854;2022-12-20T14:05:16;48.72;;;25.45;;
8694;SDS011;65580;49.446;6.854;2022-12-20T14:09:32;42.47;;;23.95;;
8694;SDS011;65580;49.446;6.854;2022-12-20T14:13:39;54.28;;;28.70;;
8694;SDS011;65580;49.446;6.854;2022-12-20T14:17:46;58.38;;;30.73;;
8694;SDS011;65580;49.446;6.854;2022-12-20T14:21:51;48.72;;;26.92;;
8694;SDS011;65580;49.446;6.854;2022-12-20T14:26:03;66.70;;;30.63;;
8694;SDS011;65580;49.446;6.854;2022-12-20T14:34:41;62.28;;;30.13;;
8694;SDS011;65580;49.446;6.854;2022-12-20T14:38:46;49.65;;;25.15;;
8694;SDS011;65580;49.446;6.854;2022-12-20T14:42:50;66.55;;;30.33;;
8694;SDS011;65580;49.446;6.854;2022-12-20T14:46:58;45.92;;;23.08;;
8694;SDS011;65580;49.446;6.854;2022-12-20T14:51:08;48.63;;;24.95;;
8694;SDS011;65580;49.446;6.854;2022-12-20T14:55:16;69.13;;;29.85;;
8694;SDS011;65580;49.446;6.854;2022-12-20T14:59:30;47.47;;;23.48;;
8694;SDS011;65580;49.446;6.854;2022-12-20T15:03:34;74.57;;;29.40;;
8694;SDS011;65580;49.446;6.854;2022-12-20T15:07:42;43.85;;;22.90;;
8694;SDS011;65580;49.446;6.854;2022-12-20T15:11:48;53.78;;;24.10;;
8694;SDS011;65580;49.446;6.854;2022-12-20T15:15:53;54.80;;;23.83;;
8694;SDS011;65580;49.446;6.854;2022-12-20T15:20:18;61.25;;;24.77;;
8694;SDS011;65580;49.446;6.854;2022-12-20T15:24:42;51.30;;;21.17;;
8694;SDS011;65580;49.446;6.854;2022-12-20T15:28:47;52.10;;;20.48;;
8694;SDS011;65580;49.446;6.854;2022-12-20T15:32:54;59.42;;;23.27;;
8694;SDS011;65580;49.446;6.854;2022-12-20T15:37:02;42.13;;;18.88;;
8694;SDS011;65580;49.446;6.854;2022-12-20T15:41:10;47.67;;;19.27;;
8694;SDS011;65580;49.446;6.854;2022-12-20T15:45:26;60.22;;;22.40;;
8694;SDS011;65580;49.446;6.854;2022-12-20T15:49:33;54.70;;;23.40;;
8694;SDS011;65580;49.446;6.854;2022-12-20T15:53:36;66.35;;;26.77;;
8694;SDS011;65580;49.446;6.854;2022-12-20T15:57:41;66.07;;;28.10;;
8694;SDS011;65580;49.446;6.854;2022-12-20T16:01:47;71.13;;;29.13;;
8694;SDS011;65580;49.446;6.854;2022-12-20T16:05:51;41.55;;;21.77;;
8694;SDS011;65580;49.446;6.854;2022-12-20T16:09:57;48.67;;;22.40;;
8694;SDS011;65580;49.446;6.854;2022-12-20T16:14:08;59.53;;;28.10;;
8694;SDS011;65580;49.446;6.854;2022-12-20T16:18:16;36.33;;;19.15;;
8694;SDS011;65580;49.446;6.854;2022-12-20T16:22:24;38.85;;;19.90;;
8694;SDS011;65580;49.446;6.854;2022-12-20T16:26:29;90.07;;;34.45;;
8694;SDS011;65580;49.446;6.854;2022-12-20T16:30:36;125.25;;;40.50;;
8694;SDS011;65580;49.446;6.854;2022-12-20T16:34:58;65.40;;;31.33;;
8694;SDS011;65580;49.446;6.854;2022-12-20T16:39:17;69.85;;;33.25;;
8694;SDS011;65580;49.446;6.854;2022-12-20T16:43:31;108.15;;;38.92;;
8694;SDS011;65580;49.446;6.854;2022-12-20T16:47:52;164.70;;;43.00;;
8694;SDS011;65580;49.446;6.854;2022-12-20T16:52:11;71.25;;;29.98;;
8694;SDS011;65580;49.446;6.854;2022-12-20T17:00:50;49.65;;;23.90;;
8694;SDS011;65580;49.446;6.854;2022-12-20T17:05:00;66.90;;;31.83;;
8694;SDS011;65580;49.446;6.854;2022-12-20T17:09:16;178.55;;;46.35;;
8694;SDS011;65580;49.446;6.854;2022-12-20T17:13:59;111.85;;;43.53;;
8694;SDS011;65580;49.446;6.854;2022-12-20T17:18:15;63.92;;;30.58;;
8694;SDS011;65580;49.446;6.854;2022-12-20T17:22:24;229.55;;;59.33;;
8694;SDS011;65580;49.446;6.854;2022-12-20T17:26:29;308.25;;;56.65;;
8694;SDS011;65580;49.446;6.854;2022-12-20T17:30:42;60.17;;;29.13;;
8694;SDS011;65580;49.446;6.854;2022-12-20T17:35:04;245.63;;;53.05;;
8694;SDS011;65580;49.446;6.854;2022-12-20T17:39:10;254.10;;;54.38;;
8694;SDS011;65580;49.446;6.854;2022-12-20T17:43:13;58.13;;;28.63;;
8694;SDS011;65580;49.446;6.854;2022-12-20T17:47:16;67.13;;;30.95;;
8694;SDS011;65580;49.446;6.854;2022-12-20T17:51:20;56.15;;;27.63;;
8694;SDS011;65580;49.446;6.854;2022-12-20T17:55:29;47.40;;;24.95;;
8694;SDS011;65580;49.446;6.854;2022-12-20T17:59:34;140.60;;;44.33;;
8694;SDS011;65580;49.446;6.854;2022-12-20T18:03:37;64.90;;;29.52;;
8694;SDS011;65580;49.446;6.854;2022-12-20T18:08:00;51.53;;;27.10;;
8694;SDS011;65580;49.446;6.854;2022-12-20T18:12:09;79.53;;;32.40;;
8694;SDS011;65580;49.446;6.854;2022-12-20T18:16:12;54.40;;;25.92;;
8694;SDS011;65580;49.446;6.854;2022-12-20T18:20:17;62.50;;;28.27;;
8694;SDS011;65580;49.446;6.854;2022-12-20T18:28:29;48.15;;;25.98;;
8694;SDS011;65580;49.446;6.854;2022-12-20T18:36:54;77.20;;;33.28;;
8694;SDS011;65580;49.446;6.854;2022-12-20T18:40:58;75.28;;;30.85;;
8694;SDS011;65580;49.446;6.854;2022-12-20T18:45:06;51.40;;;27.33;;
8694;SDS011;65580;49.446;6.854;2022-12-20T18:49:19;74.55;;;32.58;;
8694;SDS011;65580;49.446;6.854;2022-12-20T18:53:23;578.33;;;97.88;;
8694;SDS011;65580;49.446;6.854;2022-12-20T18:57:31;159.25;;;48.60;;
8694;SDS011;65580;49.446;6.854;2022-12-20T19:01:52;56.53;;;28.23;;
8694;SDS011;65580;49.446;6.854;2022-12-20T19:05:57;55.55;;;27.30;;
8694;SDS011;65580;49.446;6.854;2022-12-20T19:10:06;57.42;;;29.77;;
8694;SDS011;65580;49.446;6.854;2022-12-20T19:14:17;199.88;;;44.05;;
8694;SDS011;65580;49.446;6.854;2022-12-20T19:18:22;215.75;;;48.40;;
8694;SDS011;65580;49.446;6.854;2022-12-20T19:22:27;56.60;;;27.80;;
8694;SDS011;65580;49.446;6.854;2022-12-20T19:26:35;60.63;;;29.42;;
8694;SDS011;65580;49.446;6.854;2022-12-20T19:30:53;206.95;;;51.35;;
8694;SDS011;65580;49.446;6.854;2022-12-20T19:35:00;295.92;;;54.00;;
8694;SDS011;65580;49.446;6.854;2022-12-20T19:39:29;47.75;;;26.60;;
8694;SDS011;65580;49.446;6.854;2022-12-20T19:43:43;48.78;;;26.48;;
8694;SDS011;65580;49.446;6.854;2022-12-20T19:47:54;38.67;;;23.15;;
8694;SDS011;65580;49.446;6.854;2022-12-20T19:52:00;44.40;;;24.00;;
8694;SDS011;65580;49.446;6.854;2022-12-20T19:56:19;39.67;;;23.63;;
8694;SDS011;65580;49.446;6.854;2022-12-20T20:00:39;35.25;;;21.20;;
8694;SDS011;65580;49.446;6.854;2022-12-20T20:05:07;98.65;;;29.05;;
8694;SDS011;65580;49.446;6.854;2022-12-20T20:09:21;44.55;;;23.63;;
8694;SDS011;65580;49.446;6.854;2022-12-20T20:13:26;101.97;;;30.63;;
8694;SDS011;65580;49.446;6.854;2022-12-20T20:17:40;83.57;;;30.13;;
8694;SDS011;65580;49.446;6.854;2022-12-20T20:26:33;38.28;;;21.35;;
8694;SDS011;65580;49.446;6.854;2022-12-20T20:30:38;64.25;;;32.67;;
8694;SDS011;65580;49.446;6.854;2022-12-20T20:34:50;93.70;;;41.45;;
8694;SDS011;65580;49.446;6.854;2022-12-20T20:39:12;50.40;;;25.73;;
8694;SDS011;65580;49.446;6.854;2022-12-20T20:43:42;65.97;;;38.65;;
8694;SDS011;65580;49.446;6.854;2022-12-20T20:47:56;36.78;;;18.98;;
8694;SDS011;65580;49.446;6.854;2022-12-20T20:56:29;46.92;;;20.17;;
8694;SDS011;65580;49.446;6.854;2022-12-20T21:00:44;71.75;;;29.25;;
8694;SDS011;65580;49.446;6.854;2022-12-20T21:04:57;73.18;;;30.85;;
8694;SDS011;65580;49.446;6.854;2022-12-20T21:09:36;33.85;;;18.08;;
8694;SDS011;65580;49.446;6.854;2022-12-20T21:13:42;34.65;;;16.73;;
8694;SDS011;65580;49.446;6.854;2022-12-20T21:17:54;54.97;;;22.40;;
8694;SDS011;65580;49.446;6.854;2022-12-20T21:26:09;23.15;;;12.73;;
8694;SDS011;65580;49.446;6.854;2022-12-20T21:30:20;24.00;;;12.35;;
8694;SDS011;65580;49.446;6.854;2022-12-20T21:34:29;32.75;;;13.88;;
8694;SDS011;65580;49.446;6.854;2022-12-20T21:38:51;56.58;;;19.20;;
8694;SDS011;65580;49.446;6.854;2022-12-20T21:43:01;25.05;;;12.07;;
8694;SDS011;65580;49.446;6.854;2022-12-20T21:47:22;31.83;;;16.20;;
8694;SDS011;65580;49.446;6.854;2022-12-20T21:51:31;72.15;;;17.90;;
8694;SDS011;65580;49.446;6.854;2022-12-20T21:55:52;21.55;;;12.43;;
8694;SDS011;65580;49.446;6.854;2022-12-20T22:00:02;41.38;;;16.83;;
8694;SDS011;65580;49.446;6.854;2022-12-20T22:04:29;20.65;;;12.10;;
8694;SDS011;65580;49.446;6.854;2022-12-20T22:08:55;19.58;;;12.57;;
8694;SDS011;65580;49.446;6.854;2022-12-20T22:13:10;20.70;;;10.60;;
8694;SDS011;65580;49.446;6.854;2022-12-20T22:17:21;37.75;;;16.58;;
8694;SDS011;65580;49.446;6.854;2022-12-20T22:21:30;21.60;;;11.02;;
8694;SDS011;65580;49.446;6.854;2022-12-20T22:25:43;23.90;;;12.60;;
8694;SDS011;65580;49.446;6.854;2022-12-20T22:29:56;25.92;;;13.68;;
8694;SDS011;65580;49.446;6.854;2022-12-20T22:34:00;38.22;;;17.95;;
8694;SDS011;65580;49.446;6.854;2022-12-20T22:38:07;24.83;;;13.18;;
8694;SDS011;65580;49.446;6.854;2022-12-20T22:42:22;25.02;;;12.85;;
8694;SDS011;65580;49.446;6.854;2022-12-20T22:46:32;21.73;;;11.27;;
8694;SDS011;65580;49.446;6.854;2022-12-20T22:50:56;26.25;;;12.93;;
8694;SDS011;65580;49.446;6.854;2022-12-20T22:55:17;34.08;;;14.68;;
8694;SDS011;65580;49.446;6.854;2022-12-20T22:59:36;31.35;;;14.45;;
8694;SDS011;65580;49.446;6.854;2022-12-20T23:03:46;25.38;;;12.40;;
8694;SDS011;65580;49.446;6.854;2022-12-20T23:08:00;21.25;;;10.90;;
8694;SDS011;65580;49.446;6.854;2022-12-20T23:12:21;23.90;;;12.13;;
8694;SDS011;65580;49.446;6.854;2022-12-20T23:20:52;25.83;;;12.30;;
8694;SDS011;65580;49.446;6.854;2022-12-20T23:25:20;28.55;;;13.13;;
8694;SDS011;65580;49.446;6.854;2022-12-20T23:29:24;16.67;;;9.68;;
8694;SDS011;65580;49.446;6.854;2022-12-20T23:33:29;30.38;;;14.10;;
8694;SDS011;65580;49.446;6.854;2022-12-20T23:37:49;19.13;;;10.82;;
8694;SDS011;65580;49.446;6.854;2022-12-20T23:41:58;23.85;;;12.18;;
8694;SDS011;65580;49.446;6.854;2022-12-20T23:46:07;15.93;;;9.60;;
8694;SDS011;65580;49.446;6.854;2022-12-20T23:50:15;18.63;;;10.52;;
8694;SDS011;65580;49.446;6.854;2022-12-20T23:54:18;26.25;;;12.85;;
8694;SDS011;65580;49.446;6.854;2022-12-20T23:58:21;29.75;;;13.65;;
